Time,TemperatureF,DewpointF,PressureIn,WindDirection,WindDirectionDegrees,WindSpeedMPH,WindSpeedGustMPH,Humidity,HourlyPrecipIn,Conditions,Clouds,dailyrainin,SoftwareType,DateUTC
2013-07-03 00:03:00,62.5,55.0,30.04,ENE,61,0.0,1.0,75,0.00,,,0.00,weatherlink.com 1.10,2013-07-03 05:03:00,
2013-07-03 00:18:00,62.2,55.0,30.04,ENE,61,0.0,1.0,76,0.00,,,0.00,weatherlink.com 1.10,2013-07-03 05:18:00,
2013-07-03 00:33:00,61.5,55.0,30.03,ENE,61,0.0,1.0,78,0.00,,,0.00,weatherlink.com 1.10,2013-07-03 05:33:00,
2013-07-03 00:48:00,61.0,54.0,30.03,ENE,61,1.0,1.0,78,0.00,,,0.00,weatherlink.com 1.10,2013-07-03 05:48:00,
2013-07-03 01:03:00,60.9,54.0,30.03,ENE,61,0.0,1.0,78,0.00,,,0.00,weatherlink.com 1.10,2013-07-03 06:03:00,
2013-07-03 01:18:00,60.8,55.0,30.03,ENE,61,0.0,1.0,80,0.00,,,0.00,weatherlink.com 1.10,2013-07-03 06:18:00,
2013-07-03 01:48:00,60.0,55.0,30.02,ENE,61,0.0,1.0,84,0.00,,,0.00,weatherlink.com 1.10,2013-07-03 06:48:00,
2013-07-03 02:03:00,59.9,55.0,30.02,ENE,61,0.0,2.0,84,0.00,,,0.00,weatherlink.com 1.10,2013-07-03 07:03:00,
2013-07-03 02:18:00,59.8,55.0,30.02,ENE,61,0.0,1.0,83,0.00,,,0.00,weatherlink.com 1.10,2013-07-03 07:18:00,
2013-07-03 02:33:00,59.8,55.0,30.02,ENE,61,0.0,1.0,83,0.00,,,0.00,weatherlink.com 1.10,2013-07-03 07:33:00,
2013-07-03 02:48:00,59.8,55.0,30.02,ENE,61,0.0,1.0,83,0.00,,,0.00,weatherlink.com 1.10,2013-07-03 07:48:00,
2013-07-03 03:03:00,59.6,55.0,30.01,ENE,61,0.0,0.0,84,0.00,,,0.00,weatherlink.com 1.10,2013-07-03 08:03:00,
2013-07-03 03:18:00,59.5,55.0,30.01,ENE,61,1.0,2.0,85,0.00,,,0.00,weatherlink.com 1.10,2013-07-03 08:18:00,
2013-07-03 03:33:00,59.4,55.0,30.01,ENE,61,0.0,3.0,86,0.00,,,0.00,weatherlink.com 1.10,2013-07-03 08:33:00,
2013-07-03 04:03:00,58.8,55.0,30.01,ENE,61,0.0,1.0,87,0.00,,,0.00,weatherlink.com 1.10,2013-07-03 09:03:00,
2013-07-03 04:18:00,58.6,55.0,30.02,ENE,61,1.0,1.0,88,0.00,,,0.00,weatherlink.com 1.10,2013-07-03 09:18:00,
2013-07-03 04:33:00,58.4,55.0,30.02,ENE,61,0.0,2.0,88,0.00,,,0.00,weatherlink.com 1.10,2013-07-03 09:33:00,
2013-07-03 04:48:00,58.2,55.0,30.02,ENE,61,0.0,1.0,88,0.00,,,0.00,weatherlink.com 1.10,2013-07-03 09:48:00,
2013-07-03 05:03:00,57.8,55.0,30.02,ENE,61,0.0,1.0,89,0.00,,,0.00,weatherlink.com 1.10,2013-07-03 10:03:00,
2013-07-03 05:18:00,57.6,54.0,30.03,ENE,61,0.0,2.0,89,0.00,,,0.00,weatherlink.com 1.10,2013-07-03 10:18:00,
2013-07-03 05:33:00,57.7,55.0,30.03,ENE,61,0.0,2.0,89,0.00,,,0.00,weatherlink.com 1.10,2013-07-03 10:33:00,
2013-07-03 05:48:00,57.7,55.0,30.03,ENE,61,0.0,1.0,89,0.00,,,0.00,weatherlink.com 1.10,2013-07-03 10:48:00,
2013-07-03 06:03:00,57.7,55.0,30.03,ENE,61,0.0,1.0,89,0.00,,,0.00,weatherlink.com 1.10,2013-07-03 11:03:00,
2013-07-03 06:18:00,57.7,55.0,30.03,ENE,61,0.0,2.0,90,0.00,,,0.00,weatherlink.com 1.10,2013-07-03 11:18:00,
2013-07-03 06:33:00,57.6,55.0,30.03,ENE,61,0.0,1.0,90,0.00,,,0.00,weatherlink.com 1.10,2013-07-03 11:33:00,
2013-07-03 06:48:00,57.6,55.0,30.04,ENE,61,1.0,2.0,90,0.00,,,0.00,weatherlink.com 1.10,2013-07-03 11:48:00,
2013-07-03 07:03:00,58.1,55.0,30.04,ENE,61,1.0,2.0,90,0.00,,,0.00,weatherlink.com 1.10,2013-07-03 12:03:00,
2013-07-03 07:33:00,59.9,56.0,30.05,NNE,25,0.0,4.0,87,0.00,,,0.00,weatherlink.com 1.10,2013-07-03 12:33:00,
2013-07-03 07:48:00,61.5,56.0,30.05,North,5,1.0,5.0,83,0.00,,,0.00,weatherlink.com 1.10,2013-07-03 12:48:00,
2013-07-03 08:04:00,61.7,57.0,30.05,North,5,2.0,5.0,83,0.00,,,0.00,weatherlink.com 1.10,2013-07-03 13:04:00,
2013-07-03 08:19:00,62.2,56.0,30.05,North,5,1.0,5.0,81,0.00,,,0.00,weatherlink.com 1.10,2013-07-03 13:19:00,
2013-07-03 08:34:00,63.1,57.0,30.06,NNE,28,2.0,7.0,79,0.00,,,0.00,weatherlink.com 1.10,2013-07-03 13:34:00,
2013-07-03 08:49:00,63.7,57.0,30.06,North,355,3.0,6.0,78,0.00,,,0.00,weatherlink.com 1.10,2013-07-03 13:49:00,
2013-07-03 09:19:00,65.5,57.0,30.05,North,9,4.0,4.0,75,0.00,,,0.00,weatherlink.com 1.10,2013-07-03 14:19:00,
2013-07-03 09:34:00,66.5,57.0,30.06,NNE,30,0.0,8.0,72,0.00,,,0.00,weatherlink.com 1.10,2013-07-03 14:34:00,
2013-07-03 10:04:00,67.5,57.0,30.06,NNW,343,0.0,8.0,70,0.00,,,0.00,weatherlink.com 1.10,2013-07-03 15:04:00,
2013-07-03 10:19:00,68.7,57.0,30.06,NNE,23,1.0,6.0,67,0.00,,,0.00,weatherlink.com 1.10,2013-07-03 15:19:00,
2013-07-03 10:34:00,69.2,56.0,30.06,NNW,348,1.0,7.0,63,0.00,,,0.00,weatherlink.com 1.10,2013-07-03 15:34:00,
2013-07-03 10:49:00,70.7,55.0,30.05,NNE,25,1.0,8.0,58,0.00,,,0.00,weatherlink.com 1.10,2013-07-03 15:49:00,
2013-07-03 11:04:00,71.5,54.0,30.05,NNW,336,0.0,9.0,55,0.00,,,0.00,weatherlink.com 1.10,2013-07-03 16:04:00,
2013-07-03 11:19:00,72.6,54.0,30.05,NNW,333,2.0,9.0,53,0.00,,,0.00,weatherlink.com 1.10,2013-07-03 16:19:00,
2013-07-03 11:34:00,73.5,53.0,30.05,NNE,31,0.0,9.0,49,0.00,,,0.00,weatherlink.com 1.10,2013-07-03 16:34:00,
2013-07-03 11:49:00,74.1,53.0,30.05,NNW,329,6.0,11.0,48,0.00,,,0.00,weatherlink.com 1.10,2013-07-03 16:49:00,
2013-07-03 12:04:00,73.6,53.0,30.05,NW,318,3.0,11.0,48,0.00,,,0.00,weatherlink.com 1.10,2013-07-03 17:04:00,
2013-07-03 12:34:00,76.3,53.0,30.05,North,360,2.0,8.0,45,0.00,,,0.00,weatherlink.com 1.10,2013-07-03 17:34:00,
2013-07-03 12:49:00,76.4,53.0,30.04,NNW,329,1.0,6.0,44,0.00,,,0.00,weatherlink.com 1.10,2013-07-03 17:49:00,
2013-07-03 13:49:00,78.1,52.0,30.03,NNW,329,5.0,10.0,41,0.00,,,0.00,weatherlink.com 1.10,2013-07-03 18:49:00,
2013-07-03 14:04:00,78.3,52.0,30.03,NW,318,0.0,9.0,40,0.00,,,0.00,weatherlink.com 1.10,2013-07-03 19:04:00,
2013-07-03 14:49:00,80.1,52.0,30.03,NNW,332,3.0,7.0,38,0.00,,,0.00,weatherlink.com 1.10,2013-07-03 19:49:00,
2013-07-03 15:05:00,81.6,53.0,30.02,NNE,13,0.0,6.0,37,0.00,,,0.00,weatherlink.com 1.10,2013-07-03 20:05:00,
2013-07-03 15:35:00,82.5,51.0,30.02,WNW,294,4.0,9.0,33,0.00,,,0.00,weatherlink.com 1.10,2013-07-03 20:35:00,
2013-07-03 15:50:00,81.4,52.0,30.01,NNW,329,3.0,9.0,36,0.00,,,0.00,weatherlink.com 1.10,2013-07-03 20:50:00,
2013-07-03 16:05:00,81.1,52.0,30.01,NW,308,1.0,6.0,36,0.00,,,0.00,weatherlink.com 1.10,2013-07-03 21:05:00,
2013-07-03 16:20:00,82.9,50.0,30.01,NNW,331,3.0,8.0,32,0.00,,,0.00,weatherlink.com 1.10,2013-07-03 21:20:00,
2013-07-03 16:35:00,82.3,52.0,30.01,NW,323,5.0,9.0,35,0.00,,,0.00,weatherlink.com 1.10,2013-07-03 21:35:00,
2013-07-03 17:20:00,82.7,52.0,30.00,NW,317,1.0,7.0,34,0.00,,,0.00,weatherlink.com 1.10,2013-07-03 22:20:00,
2013-07-03 17:35:00,82.6,53.0,30.00,NW,317,0.0,4.0,36,0.00,,,0.00,weatherlink.com 1.10,2013-07-03 22:35:00,
2013-07-03 17:50:00,82.8,52.0,30.00,WNW,291,2.0,6.0,35,0.00,,,0.00,weatherlink.com 1.10,2013-07-03 22:50:00,
2013-07-03 18:05:00,82.5,53.0,30.00,SSW,202,0.0,7.0,36,0.00,,,0.00,weatherlink.com 1.10,2013-07-03 23:05:00,
2013-07-03 18:20:00,82.4,54.0,29.99,WNW,282,1.0,6.0,37,0.00,,,0.00,weatherlink.com 1.10,2013-07-03 23:20:00,
2013-07-03 18:35:00,82.3,53.0,29.99,WNW,294,0.0,6.0,37,0.00,,,0.00,weatherlink.com 1.10,2013-07-03 23:35:00,
2013-07-03 18:50:00,81.9,54.0,30.00,West,269,1.0,5.0,38,0.00,,,0.00,weatherlink.com 1.10,2013-07-03 23:50:00,
2013-07-03 19:05:00,81.5,54.0,30.00,WNW,285,1.0,5.0,39,0.00,,,0.00,weatherlink.com 1.10,2013-07-04 00:05:00,
2013-07-03 19:20:00,79.8,55.0,29.99,South,175,0.0,3.0,42,0.00,,,0.00,weatherlink.com 1.10,2013-07-04 00:20:00,
2013-07-03 19:35:00,78.8,55.0,30.00,South,175,0.0,2.0,44,0.00,,,0.00,weatherlink.com 1.10,2013-07-04 00:35:00,
2013-07-03 19:50:00,77.5,55.0,30.00,South,175,0.0,2.0,46,0.00,,,0.00,weatherlink.com 1.10,2013-07-04 00:50:00,
2013-07-03 20:05:00,76.5,55.0,30.00,South,175,0.0,1.0,48,0.00,,,0.00,weatherlink.com 1.10,2013-07-04 01:05:00,
2013-07-03 20:20:00,76.2,57.0,30.00,South,175,0.0,0.0,51,0.00,,,0.00,weatherlink.com 1.10,2013-07-04 01:20:00,
2013-07-03 20:35:00,75.5,57.0,30.00,South,175,0.0,0.0,52,0.00,,,0.00,weatherlink.com 1.10,2013-07-04 01:35:00,
2013-07-03 20:50:00,74.9,56.0,30.00,South,175,0.0,0.0,53,0.00,,,0.00,weatherlink.com 1.10,2013-07-04 01:50:00,
2013-07-03 21:05:00,73.4,57.0,30.01,South,175,0.0,0.0,57,0.00,,,0.00,weatherlink.com 1.10,2013-07-04 02:05:00,
2013-07-03 21:20:00,71.6,59.0,30.02,South,175,0.0,0.0,64,0.00,,,0.00,weatherlink.com 1.10,2013-07-04 02:20:00,
2013-07-03 21:35:00,70.3,59.0,30.03,SSE,168,3.0,6.0,67,0.00,,,0.00,weatherlink.com 1.10,2013-07-04 02:35:00,
2013-07-03 21:50:00,69.9,58.0,30.03,SSE,168,0.0,1.0,67,0.00,,,0.00,weatherlink.com 1.10,2013-07-04 02:50:00,
2013-07-03 22:05:00,69.5,58.0,30.03,SSE,168,0.0,0.0,67,0.00,,,0.00,weatherlink.com 1.10,2013-07-04 03:05:00,
2013-07-03 22:20:00,69.0,59.0,30.03,SSE,168,0.0,0.0,71,0.00,,,0.00,weatherlink.com 1.10,2013-07-04 03:20:00,
2013-07-03 22:35:00,68.3,59.0,30.03,SSE,168,0.0,0.0,72,0.00,,,0.00,weatherlink.com 1.10,2013-07-04 03:35:00,
2013-07-03 23:05:00,67.6,60.0,30.02,SSE,168,0.0,0.0,77,0.00,,,0.00,weatherlink.com 1.10,2013-07-04 04:05:00,
2013-07-03 23:20:00,66.5,59.0,30.03,SSE,168,0.0,0.0,78,0.00,,,0.00,weatherlink.com 1.10,2013-07-04 04:20:00,
2013-07-03 23:35:00,65.6,59.0,30.03,SSE,168,0.0,1.0,80,0.00,,,0.00,weatherlink.com 1.10,2013-07-04 04:35:00,
2013-07-03 23:50:00,65.5,60.0,30.03,SSE,168,0.0,1.0,81,0.00,,,0.00,weatherlink.com 1.10,2013-07-04 04:50:00,